Slave Lake Airport
CYZH : now visible

Airfield :











YOU CAN JOIN US ON...

 
LOGIN :

Register | Disclaimer

   EN    FR    IT 

 









Legend :    VFR   Marginal VFR   IFR   Intensive IFR   Very Intensive IFR
Visi :
Ceiling :
>= 8 km
>= 3000ft
5 to 8 km
1000 to 3000 ft
1500m to 5 km
500 to 1000 ft
800 to 1500m
200 to 500 ft
< 800m
< 200 ft
Symbols :   Thunderstorms  Fog  Heavy snow  Heavy precipitations  Wind > 20 kt






- Airport Elevation : 1912 ft
- IATA code : YZH


CYZH - Slave Lake

CURRENT METAR :
  • 291500Z AUTO 10012KT 4SM -SN OVC220 M14/M16 A2976 RMK SLP127

EXPIRED METARs :
  • 291442Z AUTO 11011KT 4SM -SN BKN220 BKN250 M15/M16 A2977 RMK PRESFR SLP130
  • 291400Z AUTO 11009KT 5SM BR CLR M16/M17 A2981 RMK SLP146
  • 291352Z AUTO 12007KT 5SM BR CLR M15/M17 A2982 RMK SLP147
  • 291342Z AUTO 10009KT 5SM -SN CLR M15/M17 A2982 RMK SLP147
  • 291322Z AUTO 10008KT 5SM -SN FEW240 M15/M17 A2984 RMK SLP152
  • 291310Z AUTO 11007KT 5SM BR SCT240 M17/M18 A2984 RMK SLP155
  • 291300Z AUTO 14005KT 5SM -SN CLR M17/M18 A2985 RMK SLP156

TAF TAF CYZH
Valid from the 29 at 13:00 until the 30 at 01:00 UTC


291240Z 2913/3001 10008KT 1/4SM FZFG OVC002
TEMPO 2913/2915 6SM BR SCT002
FM291500 10012G22KT P6SM FEW004 SCT200
FM292000 10008KT P6SM -SN BKN040 OVC080
TEMPO 2920/3001 2SM -SN BKN012 OVC040
PROB40 2920/3001 4SM -FZRA BR OVC008 RMK FCST BASED ON AUTO OBS. NXT FCST BY 291900Z



MET'MAP, your aeronautical weather chart ! - Copyright ORBIFLY December 2007 - Disclaimer

ORBIFLY MET'MAP TEAM :

Programming & Development : Alexandra Zaïnal
Concept & original design : Baudouin d'Aumeries
Assistance for programming : Marc-Olivier Méhu
Technical & hardware support : Manuel Goepfert

Contact : metmap@orbifly.com




SOURCES & CREDITS :

   NOAA       Earth
Advisory